In Rescue
 
Open Full Screen Window  High Contrast Mode
April 03, 2020 12:59 AM EDT
Weather Information
Wind Direction
  ---
Wind Speed
  00 kt (0 mph)
Wind Gust
  00 kt (0 mph)
Altimeter
30.13 in
Visibility
10 SM
Temperature
-02° C
28° F
Dewpoint
-03° C
27° F
Humidity
93%
Sky Condition
Clear
VFR

METAR KSJX 030459Z AUTO 00000KT 10SM CLR M02/M03 A3013 RMK AO2 T10251033

FAA Disclaimer: The data displayed is for advisory purposes only and is not to be used for flight planning or operations.